Time;durP1;ratioP1;P1;durP2;ratioP2;P2;SDS_P1;SDS_P2;PMS_P1;PMS_P2;Temp;Humidity;BMP_temperature;BMP_pressure;BME280_temperature;BME280_humidity;BME280_pressure;Samples;Min_cycle;Max_cycle;Signal;HPM_P1;HPM_P2
2021/12/04 00:01:17;;;;;;;89.00;30.17;;;4.30;99.90;;;;;;4892262;29;20334;-84
2021/12/04 00:03:43;;;;;;;91.55;31.15;;;4.40;99.90;;;;;;4892755;29;20032;-82
2021/12/04 00:06:44;;;;;;;112.70;32.67;;;4.40;99.90;;;;;;4890403;29;20064;-82
2021/12/04 00:09:04;;;;;;;76.10;28.23;;;4.40;99.90;;;;;;4902411;29;20115;-83
2021/12/04 00:11:36;;;;;;;98.63;30.50;;;4.40;99.90;;;;;;4870711;29;20119;-84
2021/12/04 00:14:03;;;;;;;96.13;30.23;;;4.30;99.90;;;;;;4892625;29;20051;-82
2021/12/04 00:16:28;;;;;;;101.32;30.83;;;4.40;99.90;;;;;;4901554;29;20044;-83
2021/12/04 00:18:54;;;;;;;98.43;31.27;;;4.40;99.90;;;;;;4871731;29;20064;-84
2021/12/04 00:21:20;;;;;;;88.05;28.60;;;4.40;99.90;;;;;;4872653;29;20470;-84
2021/12/04 00:23:46;;;;;;;93.57;31.45;;;4.40;99.90;;;;;;4905554;29;20047;-84
2021/12/04 00:26:11;;;;;;;108.50;31.38;;;4.40;99.90;;;;;;4906936;29;20052;-83
2021/12/04 00:28:38;;;;;;;97.95;32.05;;;4.40;99.90;;;;;;4874643;29;20043;-82
2021/12/04 00:31:07;;;;;;;107.35;31.70;;;4.40;99.90;;;;;;4861771;29;20054;-86
2021/12/04 00:33:36;;;;;;;97.88;30.25;;;4.40;99.90;;;;;;4876758;29;20574;-83
2021/12/04 00:36:08;;;;;;;85.25;27.98;;;4.40;99.90;;;;;;4890101;29;20051;-84
2021/12/04 00:49:18;;;;;;;110.15;30.27;;;4.40;99.90;;;;;;4898640;29;20087;-86
2021/12/04 00:51:54;;;;;;;96.55;30.50;;;4.40;99.90;;;;;;4909812;29;20526;-84
2021/12/04 00:54:23;;;;;;;88.22;28.75;;;4.40;99.90;;;;;;4883784;29;20083;-82
2021/12/04 00:56:49;;;;;;;118.35;33.00;;;4.40;99.90;;;;;;4892810;29;20041;-82
2021/12/04 00:59:16;;;;;;;108.18;31.02;;;4.40;99.90;;;;;;4881453;29;20067;-83
2021/12/04 01:01:43;;;;;;;98.68;28.55;;;4.40;99.90;;;;;;4896010;29;20124;-82
2021/12/04 01:04:14;;;;;;;111.88;31.15;;;4.40;99.90;;;;;;4897163;29;20075;-83
2021/12/04 01:06:40;;;;;;;107.20;30.48;;;4.30;99.90;;;;;;4911102;29;20147;-82
2021/12/04 01:09:10;;;;;;;91.95;27.20;;;4.40;99.90;;;;;;4882536;29;20463;-84
2021/12/04 01:11:37;;;;;;;105.10;30.30;;;4.40;99.90;;;;;;4893557;29;20047;-83
2021/12/04 01:14:04;;;;;;;115.07;31.70;;;4.40;99.90;;;;;;4882167;29;20036;-84
2021/12/04 01:16:30;;;;;;;116.65;33.67;;;4.40;99.90;;;;;;4881055;29;20040;-84
2021/12/04 01:18:56;;;;;;;92.00;25.60;;;4.40;99.90;;;;;;4882324;29;20358;-82
2021/12/04 01:21:22;;;;;;;103.13;28.80;;;4.40;99.90;;;;;;4899338;29;20036;-83
2021/12/04 01:23:47;;;;;;;119.88;33.80;;;4.40;99.90;;;;;;4867812;29;20036;-84
2021/12/04 01:26:13;;;;;;;87.03;26.63;;;4.30;99.90;;;;;;4868198;29;20048;-83
2021/12/04 01:28:40;;;;;;;93.57;28.45;;;4.40;99.90;;;;;;4866109;29;20040;-84
2021/12/04 01:31:06;;;;;;;87.85;27.67;;;4.40;99.90;;;;;;4864940;29;20114;-84
2021/12/04 01:33:33;;;;;;;93.78;28.95;;;4.40;99.90;;;;;;4882984;29;20118;-85
2021/12/04 01:35:59;;;;;;;86.55;29.10;;;4.30;99.90;;;;;;4883675;29;20040;-84
2021/12/04 01:38:25;;;;;;;88.03;28.63;;;4.30;99.90;;;;;;4887184;29;20183;-84
2021/12/04 01:40:50;;;;;;;73.35;25.05;;;4.40;99.90;;;;;;4868023;29;20119;-84
2021/12/04 01:43:16;;;;;;;78.10;26.02;;;4.40;99.90;;;;;;4883163;29;20549;-84
2021/12/04 01:45:42;;;;;;;105.82;28.13;;;4.40;99.90;;;;;;4867267;29;20036;-85
2021/12/04 01:48:08;;;;;;;85.15;28.13;;;4.40;99.90;;;;;;4884138;29;20056;-83
2021/12/04 01:50:35;;;;;;;73.20;27.13;;;4.40;99.90;;;;;;4866503;29;20050;-83
2021/12/04 01:53:01;;;;;;;71.03;26.30;;;4.40;99.90;;;;;;4884182;29;20282;-85
2021/12/04 01:55:30;;;;;;;82.88;27.88;;;4.40;99.90;;;;;;4897997;29;20046;-87
2021/12/04 01:57:57;;;;;;;63.25;24.52;;;4.40;99.90;;;;;;4912490;29;20095;-83
2021/12/04 02:00:23;;;;;;;56.92;24.02;;;4.40;99.90;;;;;;4889256;29;20043;-84
2021/12/04 02:02:50;;;;;;;59.88;25.67;;;4.40;99.90;;;;;;4868090;29;20060;-84
2021/12/04 02:05:16;;;;;;;68.05;27.13;;;4.40;99.90;;;;;;4871670;29;20052;-83
2021/12/04 02:07:41;;;;;;;60.03;26.38;;;4.40;99.90;;;;;;4886986;29;20044;-85
2021/12/04 02:10:10;;;;;;;68.13;27.08;;;4.40;99.90;;;;;;4869697;29;20032;-83
2021/12/04 02:12:37;;;;;;;68.95;27.38;;;4.40;99.90;;;;;;4887990;29;20031;-86
2021/12/04 02:15:04;;;;;;;52.70;24.35;;;4.40;99.90;;;;;;4879456;29;20040;-85
2021/12/04 02:17:31;;;;;;;60.97;25.88;;;4.40;99.90;;;;;;4900289;29;20068;-87
2021/12/04 02:19:57;;;;;;;55.20;23.95;;;4.30;99.90;;;;;;4887874;29;20063;-85
2021/12/04 02:22:23;;;;;;;45.50;23.10;;;4.40;99.90;;;;;;4868640;29;20036;-85
2021/12/04 02:24:49;;;;;;;63.42;27.55;;;4.40;99.90;;;;;;4886753;29;20393;-84
2021/12/04 02:27:14;;;;;;;54.05;25.17;;;4.40;99.90;;;;;;4862841;29;20036;-86
2021/12/04 02:29:48;;;;;;;60.75;27.10;;;4.40;99.90;;;;;;4911611;29;20048;-84
2021/12/04 02:32:18;;;;;;;61.47;27.42;;;4.40;99.90;;;;;;4912512;29;20217;-87
2021/12/04 02:34:43;;;;;;;49.40;23.95;;;4.40;99.90;;;;;;4894684;29;20032;-86
2021/12/04 02:37:09;;;;;;;48.30;24.00;;;4.40;99.90;;;;;;4868879;29;20770;-86
2021/12/04 02:39:38;;;;;;;44.20;22.38;;;4.40;99.90;;;;;;4871641;29;20047;-85
2021/12/04 02:42:17;;;;;;;37.40;20.48;;;4.40;99.90;;;;;;4893613;29;20701;-86
2021/12/04 02:44:45;;;;;;;52.42;24.40;;;4.40;99.90;;;;;;4881769;29;20051;-84
2021/12/04 02:47:12;;;;;;;43.67;22.13;;;4.40;99.90;;;;;;4882040;29;20052;-84
2021/12/04 02:49:38;;;;;;;41.78;21.35;;;4.40;99.90;;;;;;4866906;29;20396;-85
2021/12/04 02:52:06;;;;;;;46.53;22.58;;;4.40;99.90;;;;;;4937758;23;20058;-85
2021/12/04 02:54:33;;;;;;;40.75;21.60;;;4.40;99.90;;;;;;4946478;28;20411;-83
2021/12/04 02:57:00;;;;;;;39.25;20.25;;;4.40;99.90;;;;;;4961205;28;20050;-84
2021/12/04 02:59:26;;;;;;;43.55;21.65;;;4.40;99.90;;;;;;4929546;28;20031;-84
2021/12/04 03:01:55;;;;;;;36.25;19.83;;;4.30;99.90;;;;;;4941992;28;20097;-85
2021/12/04 03:04:23;;;;;;;42.03;22.38;;;4.30;99.90;;;;;;4920372;28;20075;-83
2021/12/04 03:06:49;;;;;;;35.85;19.48;;;4.30;99.90;;;;;;4921587;28;20485;-84
2021/12/04 03:09:16;;;;;;;36.17;20.83;;;4.30;99.90;;;;;;4914661;28;20050;-85
2021/12/04 03:11:42;;;;;;;34.92;19.63;;;4.30;99.90;;;;;;4941685;28;20130;-84
2021/12/04 03:14:08;;;;;;;30.67;18.23;;;4.30;99.90;;;;;;4912527;28;20137;-86
2021/12/04 03:16:36;;;;;;;38.45;19.88;;;4.30;99.90;;;;;;4921250;28;20045;-85
2021/12/04 03:19:04;;;;;;;32.28;18.73;;;4.30;99.90;;;;;;4940067;28;20473;-84
2021/12/04 03:21:31;;;;;;;34.15;18.73;;;4.30;99.90;;;;;;4936485;28;20050;-85
2021/12/04 03:24:04;;;;;;;32.30;18.73;;;4.30;99.90;;;;;;4917348;28;20071;-84
2021/12/04 03:26:30;;;;;;;36.20;19.45;;;4.30;99.90;;;;;;4916705;28;20129;-84
2021/12/04 03:28:59;;;;;;;36.63;19.80;;;4.30;99.90;;;;;;4931264;28;20035;-84
2021/12/04 03:32:08;;;;;;;31.58;17.00;;;4.30;99.90;;;;;;4916509;28;20038;-84
2021/12/04 03:42:25;;;;;;;29.33;17.00;;;4.30;99.90;;;;;;4943796;28;20063;-84
2021/12/04 03:44:51;;;;;;;32.92;17.60;;;4.30;99.90;;;;;;4929826;28;20274;-85
2021/12/04 03:47:20;;;;;;;35.00;17.70;;;4.30;99.90;;;;;;4914971;28;20043;-85
2021/12/04 03:49:46;;;;;;;32.15;16.95;;;4.30;99.90;;;;;;4939203;28;20441;-85
2021/12/04 03:52:12;;;;;;;34.50;16.63;;;4.20;99.90;;;;;;4923833;28;20047;-86
2021/12/04 03:54:41;;;;;;;31.33;15.95;;;4.20;99.90;;;;;;4936398;28;20038;-85
2021/12/04 03:57:10;;;;;;;31.92;14.85;;;4.30;99.90;;;;;;4934932;28;20730;-83
2021/12/04 03:59:43;;;;;;;34.60;16.50;;;4.20;99.90;;;;;;4931196;28;20085;-86
2021/12/04 04:02:10;;;;;;;34.35;16.23;;;4.20;99.90;;;;;;4947605;28;20126;-84
2021/12/04 04:04:36;;;;;;;39.22;17.95;;;4.20;99.90;;;;;;4933256;28;20047;-84
2021/12/04 04:07:03;;;;;;;40.30;17.42;;;4.20;99.90;;;;;;4950412;28;20074;-84
2021/12/04 04:09:29;;;;;;;36.55;17.40;;;4.20;99.90;;;;;;4948974;28;20047;-86
2021/12/04 04:11:56;;;;;;;43.08;18.65;;;4.20;99.90;;;;;;4938457;28;20088;-83
2021/12/04 04:14:23;;;;;;;52.58;19.73;;;4.20;99.90;;;;;;4941053;28;20129;-85
2021/12/04 04:16:49;;;;;;;48.30;18.45;;;4.20;99.90;;;;;;4903511;28;20081;-85
2021/12/04 04:19:15;;;;;;;32.42;15.52;;;4.20;99.90;;;;;;4912079;28;20043;-83
2021/12/04 04:21:44;;;;;;;51.35;18.48;;;4.20;99.90;;;;;;4903580;28;20043;-85
2021/12/04 04:24:13;;;;;;;44.85;18.15;;;4.20;99.90;;;;;;4920006;28;20042;-84
2021/12/04 04:26:40;;;;;;;44.53;18.35;;;4.20;99.90;;;;;;4933237;28;20035;-83
2021/12/04 04:29:07;;;;;;;46.33;18.63;;;4.20;99.90;;;;;;4913132;28;20075;-83
2021/12/04 04:31:34;;;;;;;41.53;16.80;;;4.20;99.90;;;;;;4910711;28;20141;-86
2021/12/04 04:34:02;;;;;;;40.10;17.30;;;4.20;99.90;;;;;;4950472;28;20154;-84
2021/12/04 04:36:45;;;;;;;45.58;19.30;;;4.20;99.90;;;;;;4962539;28;20034;-84
2021/12/04 04:59:23;;;;;;;46.28;18.80;;;4.20;99.90;;;;;;4958324;28;20051;-83
2021/12/04 05:14:36;;;;;;;56.20;19.88;;;4.20;99.90;;;;;;4957321;28;20407;-85
2021/12/04 05:17:15;;;;;;;62.00;19.85;;;4.20;99.90;;;;;;4941443;28;20040;-84
2021/12/04 05:19:52;;;;;;;56.67;19.45;;;4.20;99.90;;;;;;4918054;28;20439;-83
2021/12/04 05:22:17;;;;;;;42.95;18.10;;;4.20;99.90;;;;;;4934474;28;20035;-84
2021/12/04 05:24:43;;;;;;;57.25;20.25;;;4.20;99.90;;;;;;4932613;28;20047;-83
2021/12/04 05:27:09;;;;;;;47.58;19.17;;;4.20;99.90;;;;;;4934077;28;20054;-83
2021/12/04 05:29:35;;;;;;;76.30;19.48;;;4.20;99.90;;;;;;4929099;28;20509;-84
2021/12/04 05:32:03;;;;;;;73.97;21.00;;;4.20;99.90;;;;;;4929412;28;20046;-84
2021/12/04 05:34:30;;;;;;;59.28;19.02;;;4.20;99.90;;;;;;4932695;28;20155;-85
2021/12/04 05:36:56;;;;;;;54.65;20.38;;;4.20;99.90;;;;;;4927627;28;20050;-86
2021/12/04 05:39:22;;;;;;;58.05;20.80;;;4.20;99.90;;;;;;4930984;28;20450;-83
2021/12/04 05:41:48;;;;;;;52.00;19.85;;;4.20;99.90;;;;;;4901080;28;20039;-85
2021/12/04 05:44:15;;;;;;;70.28;21.17;;;4.20;99.90;;;;;;4919965;28;20046;-83
2021/12/04 05:47:06;;;;;;;72.28;19.55;;;4.20;99.90;;;;;;4911507;28;20511;-82
2021/12/04 05:49:38;;;;;;;68.13;20.25;;;4.20;99.90;;;;;;4939442;28;20063;-84
2021/12/04 05:52:52;;;;;;;65.65;20.88;;;4.20;99.90;;;;;;4920484;28;20121;-84
2021/12/04 05:57:38;;;;;;;72.60;20.98;;;4.20;99.90;;;;;;4948263;28;20051;-84
2021/12/04 06:00:25;;;;;;;67.53;19.90;;;4.20;99.90;;;;;;4934565;28;20063;-83
2021/12/04 06:02:51;;;;;;;73.22;20.90;;;4.20;99.90;;;;;;4945745;28;20035;-83
2021/12/04 06:05:17;;;;;;;66.68;20.00;;;4.20;99.90;;;;;;4941845;28;20493;-83
2021/12/04 06:07:43;;;;;;;69.25;20.92;;;4.20;99.90;;;;;;4905163;28;20041;-83
2021/12/04 06:10:10;;;;;;;44.33;18.15;;;4.20;99.90;;;;;;4952112;28;20066;-85
2021/12/04 06:12:36;;;;;;;49.63;19.25;;;4.20;99.90;;;;;;4939513;28;20042;-85
2021/12/04 06:15:03;;;;;;;46.90;19.08;;;4.20;99.90;;;;;;4954642;28;20038;-84
2021/12/04 06:17:29;;;;;;;57.20;20.00;;;4.20;99.90;;;;;;4944887;28;20066;-84
2021/12/04 06:22:41;;;;;;;48.78;19.77;;;4.20;99.90;;;;;;4942964;28;20045;-85
2021/12/04 06:25:16;;;;;;;47.50;19.65;;;4.20;99.90;;;;;;4942994;28;20173;-84
2021/12/04 06:27:43;;;;;;;37.47;17.95;;;4.20;99.90;;;;;;4928933;28;20067;-84
2021/12/04 06:30:12;;;;;;;51.30;19.80;;;4.20;99.90;;;;;;4941158;28;20533;-83
2021/12/04 06:32:39;;;;;;;41.58;19.55;;;4.20;99.90;;;;;;4930173;28;20047;-85
2021/12/04 06:35:07;;;;;;;60.83;19.63;;;4.20;99.90;;;;;;4950327;28;20053;-85
2021/12/04 06:37:33;;;;;;;51.63;19.70;;;4.20;99.90;;;;;;4950331;28;20122;-85
2021/12/04 06:39:59;;;;;;;58.88;18.92;;;4.20;99.90;;;;;;4917408;28;20121;-83
2021/12/04 06:42:25;;;;;;;53.90;19.95;;;4.20;99.90;;;;;;4918220;28;20134;-84
2021/12/04 06:44:54;;;;;;;43.97;19.55;;;4.20;99.90;;;;;;4909231;28;20150;-85
2021/12/04 06:47:19;;;;;;;48.47;19.50;;;4.20;99.90;;;;;;4927152;28;20083;-84
2021/12/04 06:49:45;;;;;;;54.47;19.27;;;4.20;99.90;;;;;;4910314;28;20038;-83
2021/12/04 06:52:20;;;;;;;64.60;21.83;;;4.20;99.90;;;;;;4911372;28;20039;-84
2021/12/04 06:54:54;;;;;;;48.42;19.77;;;4.20;99.90;;;;;;4900845;28;20035;-83
2021/12/04 06:57:21;;;;;;;51.70;20.13;;;4.20;99.90;;;;;;4920731;28;21122;-83
2021/12/04 06:59:48;;;;;;;61.08;21.67;;;4.20;99.90;;;;;;4929241;28;20062;-83
2021/12/04 07:02:14;;;;;;;55.88;21.55;;;4.20;99.90;;;;;;4900232;28;20057;-83
2021/12/04 07:04:40;;;;;;;62.67;21.42;;;4.20;99.90;;;;;;4913143;28;20043;-84
2021/12/04 07:07:07;;;;;;;51.63;20.63;;;4.20;99.90;;;;;;4938434;28;20490;-83
2021/12/04 07:09:34;;;;;;;61.10;21.25;;;4.20;99.90;;;;;;4932312;28;20035;-83
2021/12/04 07:12:00;;;;;;;63.28;22.25;;;4.20;99.90;;;;;;4934556;28;20049;-86
2021/12/04 07:14:30;;;;;;;58.40;20.63;;;4.20;99.90;;;;;;4937376;28;20042;-84
2021/12/04 07:16:56;;;;;;;60.45;20.90;;;4.20;99.90;;;;;;4913962;28;20407;-83
2021/12/04 07:19:22;;;;;;;72.65;21.60;;;4.20;99.90;;;;;;4947347;28;20094;-84
2021/12/04 07:21:48;;;;;;;66.03;20.48;;;4.20;99.90;;;;;;4939253;28;20494;-84
2021/12/04 07:24:15;;;;;;;72.43;20.73;;;4.20;99.90;;;;;;4917710;28;20062;-83
2021/12/04 07:26:41;;;;;;;46.20;18.10;;;4.30;99.90;;;;;;4931242;28;20047;-85
2021/12/04 07:29:07;;;;;;;59.42;19.60;;;4.20;99.90;;;;;;4932588;28;20042;-84
2021/12/04 07:31:34;;;;;;;62.45;19.98;;;4.20;99.90;;;;;;4925604;28;20413;-85
2021/12/04 07:34:00;;;;;;;67.43;19.55;;;4.20;99.90;;;;;;4943438;28;20039;-84
2021/12/04 07:36:27;;;;;;;49.80;19.00;;;4.20;99.90;;;;;;4917669;28;20046;-83
2021/12/04 07:38:53;;;;;;;63.13;19.30;;;4.20;99.90;;;;;;4944567;28;20106;-83
2021/12/04 07:41:19;;;;;;;49.92;17.60;;;4.20;99.90;;;;;;4913298;28;20087;-84
2021/12/04 07:43:45;;;;;;;41.05;17.88;;;4.20;99.90;;;;;;4917592;28;20046;-84
2021/12/04 07:46:11;;;;;;;63.35;18.40;;;4.20;99.90;;;;;;4926519;28;20166;-84
2021/12/04 07:48:37;;;;;;;36.60;15.85;;;4.20;99.90;;;;;;4934761;28;20038;-85
2021/12/04 07:51:04;;;;;;;32.80;15.65;;;4.20;99.90;;;;;;4913107;28;20038;-84
2021/12/04 07:53:31;;;;;;;38.63;15.57;;;4.20;99.90;;;;;;4929174;28;20050;-84
2021/12/04 07:55:58;;;;;;;40.85;16.92;;;4.30;99.90;;;;;;4947109;28;20110;-84
2021/12/04 07:58:23;;;;;;;44.38;17.58;;;4.20;99.90;;;;;;4937450;28;20041;-83
2021/12/04 08:00:49;;;;;;;36.38;16.98;;;4.30;99.90;;;;;;4913207;28;20486;-85
2021/12/04 08:03:15;;;;;;;56.28;18.65;;;4.30;99.90;;;;;;4917688;28;20477;-83
2021/12/04 08:05:42;;;;;;;56.97;19.30;;;4.30;99.90;;;;;;4946805;28;20107;-84
2021/12/04 08:08:10;;;;;;;44.95;18.63;;;4.30;99.90;;;;;;4958832;28;20039;-83
2021/12/04 08:10:36;;;;;;;52.05;19.75;;;4.30;99.90;;;;;;4926144;28;20276;-84
2021/12/04 08:13:04;;;;;;;47.70;19.10;;;4.30;99.90;;;;;;4939907;28;20050;-84
2021/12/04 08:15:32;;;;;;;57.13;20.63;;;4.30;99.90;;;;;;4898112;28;20054;-84
2021/12/04 08:17:58;;;;;;;60.55;20.13;;;4.30;99.90;;;;;;4964350;28;20041;-83
2021/12/04 08:20:27;;;;;;;63.30;20.92;;;4.30;99.90;;;;;;4962085;28;20135;-83
2021/12/04 08:22:53;;;;;;;64.03;22.17;;;4.30;99.90;;;;;;4932964;28;20065;-86
2021/12/04 08:25:23;;;;;;;68.95;21.65;;;4.40;99.90;;;;;;4940792;28;20065;-86
2021/12/04 08:27:50;;;;;;;73.15;22.23;;;4.40;99.90;;;;;;4920487;28;20039;-84
2021/12/04 08:30:22;;;;;;;78.88;24.23;;;4.30;99.90;;;;;;4949553;28;20078;-83
2021/12/04 08:32:52;;;;;;;82.03;23.52;;;4.40;99.90;;;;;;4942567;28;20235;-83
2021/12/04 08:35:18;;;;;;;76.95;23.88;;;4.40;99.90;;;;;;4932463;28;20521;-84
2021/12/04 08:37:46;;;;;;;89.00;24.23;;;4.40;99.90;;;;;;4949261;28;20398;-85
2021/12/04 08:40:15;;;;;;;73.00;23.60;;;4.40;99.90;;;;;;4924455;28;20027;-86
2021/12/04 08:42:44;;;;;;;83.43;25.23;;;4.40;99.90;;;;;;4938095;28;20167;-85
2021/12/04 08:45:12;;;;;;;91.72;25.98;;;4.40;99.90;;;;;;4942976;28;20452;-86
2021/12/04 08:47:38;;;;;;;84.97;25.00;;;4.40;99.90;;;;;;4922230;28;20138;-84
2021/12/04 08:50:10;;;;;;;89.53;25.30;;;4.40;99.90;;;;;;4926643;28;20039;-85
2021/12/04 08:52:38;;;;;;;91.00;24.83;;;4.50;99.90;;;;;;4939163;28;20158;-84
2021/12/04 08:55:05;;;;;;;82.47;22.55;;;4.50;99.90;;;;;;4933498;28;20047;-84
2021/12/04 08:57:31;;;;;;;83.93;23.95;;;4.50;99.90;;;;;;4951135;28;20113;-84
2021/12/04 08:59:57;;;;;;;84.43;24.73;;;4.50;99.90;;;;;;4939598;28;20038;-84
2021/12/04 09:02:24;;;;;;;86.97;23.83;;;4.50;99.90;;;;;;4928695;28;20065;-83
2021/12/04 09:05:01;;;;;;;76.03;22.42;;;4.60;99.90;;;;;;4944725;28;20062;-89
2021/12/04 09:07:26;;;;;;;62.47;21.25;;;4.60;99.90;;;;;;4920724;28;20043;-82
2021/12/04 09:09:55;;;;;;;60.50;20.85;;;4.60;99.90;;;;;;4951054;28;20125;-85
2021/12/04 09:12:23;;;;;;;43.40;17.95;;;4.60;99.90;;;;;;4921207;28;20106;-84
2021/12/04 09:14:49;;;;;;;61.13;20.73;;;4.60;99.90;;;;;;4929285;28;20039;-84
2021/12/04 09:17:18;;;;;;;57.47;19.33;;;4.70;99.90;;;;;;4935911;28;20046;-86
2021/12/04 09:19:44;;;;;;;50.58;19.10;;;4.70;99.90;;;;;;4921800;28;20054;-83
2021/12/04 09:22:24;;;;;;;57.60;20.17;;;4.70;99.90;;;;;;4941997;28;20035;-84
2021/12/04 09:24:57;;;;;;;56.80;19.08;;;4.70;99.90;;;;;;4925072;28;20038;-85
2021/12/04 09:33:07;;;;;;;48.08;17.48;;;4.70;99.90;;;;;;4934722;28;20398;-86
2021/12/04 10:11:37;;;;;;;49.35;17.60;;;4.90;99.90;;;;;;4958460;28;20129;-84
2021/12/04 10:19:19;;;;;;;60.25;17.08;;;4.80;99.90;;;;;;4935072;28;20043;-85
2021/12/04 10:22:16;;;;;;;61.47;17.77;;;4.90;99.90;;;;;;4941386;28;20402;-83
2021/12/04 10:24:58;;;;;;;65.22;18.00;;;4.90;99.90;;;;;;4935739;28;20043;-84
2021/12/04 10:33:16;;;;;;;64.03;20.10;;;5.00;99.90;;;;;;4954192;28;20109;-83
2021/12/04 10:35:44;;;;;;;57.90;17.70;;;5.10;99.90;;;;;;4949005;28;20042;-82
2021/12/04 10:38:21;;;;;;;66.53;19.83;;;5.10;99.90;;;;;;4966321;28;20513;-84
2021/12/04 10:40:49;;;;;;;62.95;21.00;;;5.10;99.90;;;;;;4948739;28;20027;-83
2021/12/04 10:43:26;;;;;;;73.88;20.30;;;5.10;99.90;;;;;;4955273;28;20442;-82
2021/12/04 10:45:56;;;;;;;77.03;23.20;;;5.10;99.90;;;;;;4955553;28;20053;-83
2021/12/04 10:48:27;;;;;;;71.03;22.00;;;5.10;99.90;;;;;;4940718;28;20035;-84
2021/12/04 10:53:35;;;;;;;64.68;21.70;;;5.10;99.90;;;;;;4950703;28;20043;-85
2021/12/04 11:01:35;;;;;;;57.53;21.40;;;5.10;99.90;;;;;;4954404;28;20048;-86
2021/12/04 11:26:42;;;;;;;48.72;20.02;;;5.20;99.90;;;;;;4943959;28;20049;-83
2021/12/04 11:38:02;;;;;;;54.92;22.02;;;5.30;99.90;;;;;;4917369;28;20091;-83
2021/12/04 11:43:20;;;;;;;61.28;23.70;;;5.20;99.90;;;;;;4943230;28;20038;-84
2021/12/04 11:48:42;;;;;;;61.55;24.02;;;5.20;99.90;;;;;;4947553;28;20077;-85
2021/12/04 11:51:23;;;;;;;64.80;25.90;;;5.30;99.90;;;;;;4946632;28;20105;-83
2021/12/04 11:53:51;;;;;;;63.60;25.92;;;5.20;99.90;;;;;;4939346;28;20074;-83
2021/12/04 11:56:23;;;;;;;66.40;26.48;;;5.30;99.90;;;;;;4923011;28;20219;-84
2021/12/04 11:58:59;;;;;;;;;;;5.30;99.90;;;;;;4953686;28;20070;-83
2021/12/04 12:01:38;;;;;;;63.53;26.80;;;5.20;99.90;;;;;;4937489;28;20314;-86
2021/12/04 12:04:10;;;;;;;74.05;29.63;;;5.20;99.90;;;;;;4917490;28;20035;-81
2021/12/04 12:07:03;;;;;;;79.97;30.20;;;5.20;99.90;;;;;;4947621;28;20153;-86
2021/12/04 12:09:29;;;;;;;76.18;29.42;;;5.20;99.90;;;;;;4931008;28;20034;-84
2021/12/04 12:11:59;;;;;;;78.22;31.05;;;5.20;99.90;;;;;;4922807;28;20098;-82
2021/12/04 12:14:50;;;;;;;111.32;32.92;;;5.20;99.90;;;;;;4970518;28;20101;-83
2021/12/04 12:17:29;;;;;;;87.80;33.20;;;5.20;99.90;;;;;;4949830;28;20046;-83
2021/12/04 12:19:54;;;;;;;95.75;32.78;;;5.20;99.90;;;;;;4924115;29;20470;-83
2021/12/04 12:22:39;;;;;;;90.13;32.08;;;5.30;99.90;;;;;;4945149;28;20042;-82
2021/12/04 12:37:23;;;;;;;111.50;33.03;;;5.30;99.90;;;;;;4960239;28;20062;-84
2021/12/04 12:39:59;;;;;;;105.05;33.83;;;5.30;99.90;;;;;;4944036;28;20580;-85
2021/12/04 12:42:28;;;;;;;111.38;35.15;;;5.30;99.90;;;;;;4962690;28;20046;-83
2021/12/04 12:44:54;;;;;;;109.82;34.90;;;5.30;99.90;;;;;;4933838;28;20422;-85
2021/12/04 12:47:22;;;;;;;111.47;36.75;;;5.20;99.90;;;;;;4933009;28;20049;-84
2021/12/04 12:49:48;;;;;;;126.43;35.65;;;5.30;99.90;;;;;;4941307;28;20073;-83
2021/12/04 12:52:24;;;;;;;119.15;35.90;;;5.20;99.90;;;;;;4930205;28;20031;-84
2021/12/04 12:55:04;;;;;;;124.28;36.92;;;5.20;99.90;;;;;;4946830;28;20058;-83
2021/12/04 12:57:39;;;;;;;107.00;34.55;;;5.20;99.90;;;;;;4952459;28;20062;-82
2021/12/04 13:11:54;;;;;;;119.78;33.83;;;5.30;99.90;;;;;;4953979;28;20039;-83
2021/12/04 13:14:30;;;;;;;91.35;30.83;;;5.30;99.90;;;;;;4942457;28;20035;-83
2021/12/04 13:17:03;;;;;;;97.60;30.27;;;5.20;99.90;;;;;;4943585;28;20066;-82
2021/12/04 13:19:30;;;;;;;98.85;29.58;;;5.20;99.90;;;;;;4964519;28;20062;-83
2021/12/04 13:22:03;;;;;;;92.65;30.95;;;5.30;99.90;;;;;;4966181;28;20486;-83
2021/12/04 13:24:34;;;;;;;;;;;5.30;99.90;;;;;;4939830;28;20046;-83
2021/12/04 13:29:46;;;;;;;78.45;27.00;;;5.30;99.90;;;;;;4951925;28;20043;-83
2021/12/04 13:32:14;;;;;;;86.88;29.40;;;5.30;99.90;;;;;;4934907;28;20511;-83
2021/12/04 13:34:42;;;;;;;88.65;28.85;;;5.30;99.90;;;;;;4952341;28;20051;-83
2021/12/04 13:37:09;;;;;;;88.13;30.38;;;5.30;99.90;;;;;;4954087;28;20106;-83
2021/12/04 13:39:37;;;;;;;89.55;28.83;;;5.20;99.90;;;;;;4938033;28;20090;-82
2021/12/04 13:42:04;;;;;;;94.28;31.52;;;5.20;99.90;;;;;;4962905;28;20043;-83
2021/12/04 13:44:32;;;;;;;84.55;30.85;;;5.20;99.90;;;;;;4923884;28;20472;-84
2021/12/04 13:47:03;;;;;;;94.38;33.53;;;5.20;99.90;;;;;;4947181;28;20039;-84
2021/12/04 13:50:06;;;;;;;107.25;34.53;;;5.30;99.90;;;;;;4936044;28;20127;-84
2021/12/04 13:52:33;;;;;;;101.80;33.78;;;5.20;99.90;;;;;;4942704;28;20093;-83
2021/12/04 13:55:12;;;;;;;96.53;32.30;;;5.30;99.90;;;;;;4946827;28;20055;-83
2021/12/04 13:57:40;;;;;;;96.07;34.35;;;5.20;99.90;;;;;;4938866;28;20066;-84
2021/12/04 14:00:07;;;;;;;103.82;33.78;;;5.20;99.90;;;;;;4926586;28;20049;-83
2021/12/04 14:02:33;;;;;;;103.28;33.30;;;5.20;99.90;;;;;;4922124;28;20073;-83
2021/12/04 14:05:01;;;;;;;99.70;35.38;;;5.20;99.90;;;;;;4925318;28;20058;-83
2021/12/04 14:07:27;;;;;;;107.03;36.30;;;5.20;99.90;;;;;;4949366;28;20043;-82
2021/12/04 14:09:56;;;;;;;96.07;34.42;;;5.20;99.90;;;;;;4945642;28;20051;-85
2021/12/04 14:12:29;;;;;;;100.32;33.17;;;5.20;99.90;;;;;;4947572;28;20115;-83
2021/12/04 14:14:55;;;;;;;107.13;33.22;;;5.20;99.90;;;;;;4952647;28;20039;-83
2021/12/04 14:17:20;;;;;;;102.18;33.20;;;5.20;99.90;;;;;;4922097;29;20041;-82
2021/12/04 14:19:47;;;;;;;99.15;33.15;;;5.20;99.90;;;;;;4939843;28;20556;-83
2021/12/04 14:22:16;;;;;;;102.38;33.33;;;5.20;99.90;;;;;;4921416;28;20058;-82
2021/12/04 14:24:54;;;;;;;103.13;33.85;;;5.20;99.90;;;;;;4944624;28;20097;-83
2021/12/04 14:27:35;;;;;;;121.10;37.47;;;5.20;99.90;;;;;;4944365;28;20045;-83
2021/12/04 14:30:08;;;;;;;120.82;35.25;;;5.20;99.90;;;;;;4948704;28;20041;-83
2021/12/04 14:32:37;;;;;;;124.05;35.83;;;5.20;99.90;;;;;;4940868;28;20043;-83
2021/12/04 14:35:10;;;;;;;142.35;37.03;;;5.20;99.90;;;;;;4941921;28;20038;-84
2021/12/04 14:37:40;;;;;;;182.15;39.47;;;5.20;99.90;;;;;;4948126;28;20202;-84
2021/12/04 14:40:13;;;;;;;139.95;38.38;;;5.20;99.90;;;;;;4931182;28;20035;-84
2021/12/04 14:42:39;;;;;;;179.90;40.58;;;5.20;99.90;;;;;;4947507;28;20055;-83
2021/12/04 14:45:20;;;;;;;157.50;39.35;;;5.20;99.90;;;;;;4947474;28;20050;-84
2021/12/04 14:48:08;;;;;;;160.77;38.97;;;5.20;99.90;;;;;;4931786;28;20070;-84
2021/12/04 14:50:38;;;;;;;174.00;40.72;;;5.20;99.90;;;;;;4936495;28;20081;-84
2021/12/04 14:53:07;;;;;;;175.50;39.83;;;5.10;99.90;;;;;;4962049;28;20058;-83
2021/12/04 14:55:40;;;;;;;180.60;39.25;;;5.10;99.90;;;;;;4946368;28;20118;-83
2021/12/04 14:58:13;;;;;;;170.85;39.47;;;5.10;99.90;;;;;;4935464;28;20116;-83
2021/12/04 15:00:45;;;;;;;185.32;39.10;;;5.10;99.90;;;;;;4929201;28;20109;-84
2021/12/04 15:03:28;;;;;;;176.65;36.50;;;5.10;99.90;;;;;;4936422;28;20095;-83
2021/12/04 15:05:57;;;;;;;193.63;38.83;;;5.10;99.90;;;;;;4927654;28;20129;-84
2021/12/04 15:08:28;;;;;;;195.32;39.55;;;5.10;99.90;;;;;;4918977;28;20042;-84
2021/12/04 15:11:05;;;;;;;160.88;40.97;;;5.10;99.90;;;;;;4945250;28;20039;-83
2021/12/04 15:13:35;;;;;;;198.52;39.40;;;5.10;99.90;;;;;;4950473;28;20042;-85
2021/12/04 15:16:07;;;;;;;196.25;39.08;;;5.10;99.90;;;;;;4946334;28;20498;-83
2021/12/04 15:18:37;;;;;;;186.80;41.20;;;5.10;99.90;;;;;;4950676;28;20118;-84
2021/12/04 15:21:14;;;;;;;188.63;42.83;;;5.10;99.90;;;;;;4936010;28;20348;-83
2021/12/04 15:23:41;;;;;;;200.02;41.97;;;5.10;99.90;;;;;;4947403;28;20102;-83
2021/12/04 15:26:13;;;;;;;192.70;45.75;;;5.10;99.90;;;;;;4940251;28;20039;-85
2021/12/04 15:28:47;;;;;;;258.17;46.47;;;5.10;99.90;;;;;;4934943;28;20442;-83
2021/12/04 15:31:14;;;;;;;230.98;45.70;;;5.10;99.90;;;;;;4938611;28;20090;-84
2021/12/04 15:33:44;;;;;;;245.02;45.65;;;5.10;99.90;;;;;;4915480;28;20051;-85
2021/12/04 15:36:20;;;;;;;263.08;45.42;;;5.10;99.90;;;;;;4951301;28;20058;-85
2021/12/04 15:38:50;;;;;;;185.55;39.13;;;5.10;99.90;;;;;;4948731;28;20027;-83
2021/12/04 15:47:06;;;;;;;192.57;41.67;;;5.10;99.90;;;;;;4938769;28;20058;-85
2021/12/04 15:49:51;;;;;;;222.25;44.60;;;5.10;99.90;;;;;;4921970;28;20059;-83
2021/12/04 15:55:15;;;;;;;273.65;44.65;;;5.10;99.90;;;;;;4953052;28;20053;-84
2021/12/04 15:57:56;;;;;;;313.60;44.97;;;5.10;99.90;;;;;;4952821;28;20035;-85